Time;durP1;ratioP1;P1;durP2;ratioP2;P2;SDS_P1;SDS_P2;PMS_P1;PMS_P2;Temp;Humidity;BMP_temperature;BMP_pressure;BME280_temperature;BME280_humidity;BME280_pressure;Samples;Min_cycle;Max_cycle;Signal;HPM_P1;HPM_P2
2022/06/22 00:00:46;;;;;;;;;;;;;;;25.88;50.84;99001.97;3134530;28;20259;-70
2022/06/22 00:02:20;;;;;;;;;;;;;;;25.86;51.08;98991.50;3134902;28;19940;-69
2022/06/22 00:03:53;;;;;;;;;;;;;;;25.83;50.67;99005.22;3134540;28;19928;-70
2022/06/22 00:05:29;;;;;;;;;;;;;;;25.82;50.69;99003.56;3135269;28;19920;-70
2022/06/22 00:07:04;;;;;;;;;;;;;;;25.79;50.76;99011.91;3134730;28;20349;-70
2022/06/22 00:08:37;;;;;;;;;;;;;;;25.78;50.99;99017.44;3134940;28;19927;-70
2022/06/22 00:10:14;;;;;;;;;;;;;;;25.77;51.15;99015.78;3135290;28;20413;-69
2022/06/22 00:11:46;;;;;;;;;;;;;;;25.74;50.87;99018.81;3134677;28;19921;-71
2022/06/22 00:13:20;;;;;;;;;;;;;;;25.72;50.98;99019.00;3134957;28;20455;-70
2022/06/22 00:14:54;;;;;;;;;;;;;;;25.70;50.99;99021.00;3134763;28;19924;-70
2022/06/22 00:16:27;;;;;;;;;;;;;;;25.69;51.10;99023.88;3134555;28;19920;-71
2022/06/22 00:17:59;;;;;;;;;;;;;;;25.65;51.43;99026.09;3134746;28;20010;-71
2022/06/22 00:19:32;;;;;;;;;;;;;;;25.65;51.46;99023.44;3134931;28;20023;-71
2022/06/22 00:21:05;;;;;;;;;;;;;;;25.60;51.33;99026.63;3134680;28;19970;-71
2022/06/22 00:22:46;;;;;;;;;;;;;;;25.60;51.21;99025.81;3134679;28;19925;-71
2022/06/22 00:24:32;;;;;;;;;;;;;;;25.59;51.18;99022.31;3134301;28;19924;-72
2022/06/22 00:26:09;;;;;;;;;;;;;;;25.60;51.20;99025.81;3127930;28;19921;-71
2022/06/22 00:27:40;;;;;;;;;;;;;;;25.62;50.87;99021.94;3128610;28;19944;-71
2022/06/22 00:29:22;;;;;;;;;;;;;;;25.63;50.91;99018.25;3134817;28;19932;-71
2022/06/22 00:30:59;;;;;;;;;;;;;;;25.63;50.75;99020.94;3134362;28;19927;-72
2022/06/22 00:32:30;;;;;;;;;;;;;;;25.64;50.85;99027.09;3135253;28;19947;-71
2022/06/22 00:34:02;;;;;;;;;;;;;;;25.64;50.92;99027.94;3134506;28;20517;-71
2022/06/22 00:35:35;;;;;;;;;;;;;;;25.62;50.72;99027.28;3134852;28;20025;-72
2022/06/22 00:37:13;;;;;;;;;;;;;;;25.62;51.11;99029.13;3134957;28;19925;-71
2022/06/22 00:38:44;;;;;;;;;;;;;;;25.62;50.94;99031.78;3134570;28;20360;-71
2022/06/22 00:40:17;;;;;;;;;;;;;;;25.61;50.92;99030.13;3134417;28;19921;-71
2022/06/22 00:41:50;;;;;;;;;;;;;;;25.55;51.39;99026.34;3134116;28;20317;-71
2022/06/22 00:43:23;;;;;;;;;;;;;;;25.53;51.48;99017.72;3132407;28;20351;-70
2022/06/22 00:44:59;;;;;;;;;;;;;;;25.52;51.06;99017.91;3134748;28;19920;-71
2022/06/22 00:46:29;;;;;;;;;;;;;;;25.52;51.33;99023.22;3134378;28;19921;-71
2022/06/22 00:48:03;;;;;;;;;;;;;;;25.46;51.51;99016.78;3134513;28;19929;-71
2022/06/22 00:49:35;;;;;;;;;;;;;;;25.49;51.24;99019.09;3134387;28;20382;-70
2022/06/22 00:51:08;;;;;;;;;;;;;;;25.48;51.27;99024.63;3134766;28;19931;-70
2022/06/22 00:52:41;;;;;;;;;;;;;;;25.47;51.13;99025.63;3134218;28;19986;-70
2022/06/22 00:54:16;;;;;;;;;;;;;;;25.43;51.39;99030.50;3128782;28;19968;-72
2022/06/22 00:55:49;;;;;;;;;;;;;;;25.42;51.77;99026.19;3134612;28;20313;-72
2022/06/22 00:57:23;;;;;;;;;;;;;;;25.39;51.75;99019.38;3134726;28;20441;-72
2022/06/22 00:58:58;;;;;;;;;;;;;;;25.37;51.62;99023.22;3134306;28;19927;-70
2022/06/22 01:00:32;;;;;;;;;;;;;;;25.33;52.14;99030.78;3133738;28;20023;-70
2022/06/22 01:02:09;;;;;;;;;;;;;;;25.28;52.22;99037.66;3134511;28;19969;-71
2022/06/22 01:03:44;;;;;;;;;;;;;;;25.25;52.28;99032.69;3133942;28;19924;-71
2022/06/22 01:05:19;;;;;;;;;;;;;;;25.23;52.10;99034.69;3134312;28;19975;-70
2022/06/22 01:06:54;;;;;;;;;;;;;;;25.18;52.40;99040.59;3134193;28;20374;-71
2022/06/22 01:08:30;;;;;;;;;;;;;;;25.17;52.25;99046.91;3134434;28;19974;-71
2022/06/22 01:10:05;;;;;;;;;;;;;;;25.11;52.79;99045.81;3134067;28;20371;-71
2022/06/22 01:13:31;;;;;;;;;;;;;;;25.09;52.67;99054.97;3133599;28;19921;-71
2022/06/22 01:15:05;;;;;;;;;;;;;;;25.06;52.44;99061.50;3134154;28;19941;-72
2022/06/22 01:16:39;;;;;;;;;;;;;;;25.05;52.36;99056.31;3133806;28;20381;-71
2022/06/22 01:18:13;;;;;;;;;;;;;;;25.04;52.51;99058.16;3133923;28;19977;-72
2022/06/22 01:19:48;;;;;;;;;;;;;;;25.02;52.79;99062.84;3134237;28;20008;-71
2022/06/22 01:21:24;;;;;;;;;;;;;;;25.01;52.91;99058.53;3134484;28;19971;-71
2022/06/22 01:23:09;;;;;;;;;;;;;;;24.96;52.79;99061.75;3134715;28;20000;-72
2022/06/22 01:24:49;;;;;;;;;;;;;;;24.96;52.77;99066.22;3111084;28;19967;-71
2022/06/22 01:26:33;;;;;;;;;;;;;;;24.94;52.58;99066.41;3124959;28;19921;-71
2022/06/22 01:28:06;;;;;;;;;;;;;;;24.95;53.06;99070.72;3131183;28;19986;-72
2022/06/22 01:29:46;;;;;;;;;;;;;;;24.94;52.91;99065.59;3133906;28;20360;-72
2022/06/22 01:31:18;;;;;;;;;;;;;;;24.91;53.14;99073.94;3134320;28;19993;-72
2022/06/22 01:32:50;;;;;;;;;;;;;;;24.90;53.13;99066.94;3134803;28;19921;-72
2022/06/22 01:34:24;;;;;;;;;;;;;;;24.88;52.77;99071.63;3133536;28;19990;-72
2022/06/22 01:35:58;;;;;;;;;;;;;;;24.86;52.79;99063.81;3134198;28;19921;-71
2022/06/22 01:37:31;;;;;;;;;;;;;;;24.84;53.04;99067.66;3133818;28;19924;-72
2022/06/22 01:39:03;;;;;;;;;;;;;;;24.82;52.93;99059.88;3134074;28;19990;-72
2022/06/22 01:40:39;;;;;;;;;;;;;;;24.81;53.24;99058.19;3133938;28;19920;-71
2022/06/22 01:42:17;;;;;;;;;;;;;;;24.78;53.26;99063.06;3133475;28;19921;-71
2022/06/22 01:43:54;;;;;;;;;;;;;;;24.76;53.14;99071.22;3134413;28;19920;-71
2022/06/22 01:45:36;;;;;;;;;;;;;;;24.74;53.18;99067.91;3133779;28;19989;-72
2022/06/22 01:47:25;;;;;;;;;;;;;;;24.69;53.61;99063.09;3133740;28;20389;-72
2022/06/22 01:49:01;;;;;;;;;;;;;;;24.68;53.61;99069.44;3133718;28;19921;-71
2022/06/22 01:50:36;;;;;;;;;;;;;;;24.64;53.57;99061.97;3133801;28;19924;-71
2022/06/22 01:52:10;;;;;;;;;;;;;;;24.64;53.41;99070.81;3133894;28;19924;-72
2022/06/22 01:53:45;;;;;;;;;;;;;;;24.63;53.42;99066.47;3131293;28;19932;-71
2022/06/22 01:55:21;;;;;;;;;;;;;;;24.60;53.75;99061.50;3130841;28;20030;-71
2022/06/22 01:56:57;;;;;;;;;;;;;;;24.60;53.58;99066.03;3133605;28;19924;-72
2022/06/22 01:58:39;;;;;;;;;;;;;;;24.57;53.83;99059.22;3133531;28;20317;-71
2022/06/22 02:00:14;;;;;;;;;;;;;;;24.56;53.61;99067.38;3133191;28;19921;-71
2022/06/22 02:01:50;;;;;;;;;;;;;;;24.51;53.73;99068.72;3133702;28;19950;-71
2022/06/22 02:03:25;;;;;;;;;;;;;;;24.48;53.96;99063.75;3133303;28;19928;-71
2022/06/22 02:05:00;;;;;;;;;;;;;;;24.46;54.16;99070.25;3134118;28;19921;-72
2022/06/22 02:08:27;;;;;;;;;;;;;;;24.39;54.20;99058.66;3133542;28;19925;-72
2022/06/22 02:10:17;;;;;;;;;;;;;;;24.38;54.55;99057.00;3133095;28;19989;-71
2022/06/22 02:12:18;;;;;;;;;;;;;;;24.33;54.69;99054.84;3133150;28;20352;-71
2022/06/22 02:13:48;;;;;;;;;;;;;;;24.31;54.41;99056.84;3133095;28;19928;-72
2022/06/22 02:15:26;;;;;;;;;;;;;;;24.27;54.58;99056.38;3133635;28;19924;-72
2022/06/22 02:17:00;;;;;;;;;;;;;;;24.26;54.68;99065.38;3133771;28;20382;-72
2022/06/22 02:18:36;;;;;;;;;;;;;;;24.27;54.65;99061.69;3133121;28;19928;-72
2022/06/22 02:20:26;;;;;;;;;;;;;;;24.26;54.69;99056.56;3133430;28;19931;-72
2022/06/22 02:21:58;;;;;;;;;;;;;;;24.23;54.89;99054.25;3133180;28;20389;-72
2022/06/22 02:23:33;;;;;;;;;;;;;;;24.18;54.85;99064.59;3133620;28;20132;-72
2022/06/22 02:25:05;;;;;;;;;;;;;;;24.17;54.94;99066.44;3133029;28;20375;-72
2022/06/22 02:26:39;;;;;;;;;;;;;;;24.13;55.21;99054.47;3122510;28;19963;-72
2022/06/22 02:28:10;;;;;;;;;;;;;;;24.11;55.35;99066.28;3130789;28;20415;-72
2022/06/22 02:29:45;;;;;;;;;;;;;;;24.11;55.24;99067.13;3133042;28;19925;-72
2022/06/22 02:31:19;;;;;;;;;;;;;;;24.12;55.25;99066.09;3133334;28;19921;-72
2022/06/22 02:32:50;;;;;;;;;;;;;;;24.11;55.23;99072.44;3133461;28;19921;-71
2022/06/22 02:34:22;;;;;;;;;;;;;;;24.09;55.28;99071.78;3133012;28;19924;-71
2022/06/22 02:35:54;;;;;;;;;;;;;;;24.04;55.60;99069.63;3129588;28;19920;-72
2022/06/22 02:37:27;;;;;;;;;;;;;;;23.98;56.12;99057.03;3133105;28;19978;-72
2022/06/22 02:39:00;;;;;;;;;;;;;;;23.93;55.87;99066.53;3133149;28;19924;-71
2022/06/22 02:44:29;;;;;;;;;;;;;;;23.87;56.24;99059.25;3133195;28;19931;-71
2022/06/22 02:44:31;;;;;;;;;;;;;;;23.77;56.54;99054.97;3133036;28;19920;-71
2022/06/22 02:46:03;;;;;;;;;;;;;;;23.73;56.61;99045.69;3124235;28;19995;-72
2022/06/22 02:47:45;;;;;;;;;;;;;;;23.71;56.52;99050.34;3132632;28;19924;-72
2022/06/22 02:49:22;;;;;;;;;;;;;;;23.71;56.27;99046.84;3133240;28;19924;-71
2022/06/22 02:51:00;;;;;;;;;;;;;;;23.72;56.46;99041.38;3133124;28;19975;-72
2022/06/22 02:52:35;;;;;;;;;;;;;;;23.72;56.58;99041.38;3132982;28;19931;-72
2022/06/22 02:54:11;;;;;;;;;;;;;;;23.72;56.33;99040.53;3127607;28;19925;-72
2022/06/22 02:55:43;;;;;;;;;;;;;;;23.71;56.48;99039.69;3120262;28;19983;-71
2022/06/22 02:57:17;;;;;;;;;;;;;;;23.64;56.30;99036.06;3132476;28;19928;-71
2022/06/22 02:58:49;;;;;;;;;;;;;;;23.69;56.25;99041.66;3133281;28;19921;-71
2022/06/22 03:00:22;;;;;;;;;;;;;;;23.70;56.28;99043.38;3132049;28;20073;-71
2022/06/22 03:01:53;;;;;;;;;;;;;;;23.71;56.21;99037.03;3132976;28;19933;-71
2022/06/22 03:03:27;;;;;;;;;;;;;;;23.74;55.93;99043.84;3132857;28;19928;-71
2022/06/22 03:05:00;;;;;;;;;;;;;;;23.76;56.17;99039.19;3132407;28;19920;-71
2022/06/22 03:06:34;;;;;;;;;;;;;;;23.74;55.99;99039.34;3132712;28;20385;-71
2022/06/22 03:08:06;;;;;;;;;;;;;;;23.75;56.27;99041.03;3132463;28;19924;-71
2022/06/22 03:09:38;;;;;;;;;;;;;;;23.75;56.07;99038.38;3133231;28;19924;-71
2022/06/22 03:11:11;;;;;;;;;;;;;;;23.77;56.08;99046.97;3133163;28;19925;-72
2022/06/22 03:12:43;;;;;;;;;;;;;;;23.78;56.11;99038.03;3132771;28;19920;-71
2022/06/22 03:14:18;;;;;;;;;;;;;;;23.80;55.97;99037.84;3132780;28;19921;-71
2022/06/22 03:15:49;;;;;;;;;;;;;;;23.80;56.00;99043.97;3132699;28;19921;-71
2022/06/22 03:17:24;;;;;;;;;;;;;;;23.80;55.78;99045.81;3132779;28;19925;-69
2022/06/22 03:18:59;;;;;;;;;;;;;;;23.78;55.66;99043.34;3132865;28;19921;-71
2022/06/22 03:20:33;;;;;;;;;;;;;;;23.80;55.67;99038.66;3132343;28;19947;-71
2022/06/22 03:22:04;;;;;;;;;;;;;;;23.82;55.58;99044.66;3133002;28;19920;-71
2022/06/22 03:23:41;;;;;;;;;;;;;;;23.86;55.45;99045.13;3132903;28;19951;-71
2022/06/22 03:25:17;;;;;;;;;;;;;;;23.90;55.73;99042.94;3133231;28;19924;-71
2022/06/22 03:26:51;;;;;;;;;;;;;;;23.91;55.36;99040.13;3120468;28;19987;-71
2022/06/22 03:28:25;;;;;;;;;;;;;;;23.94;55.02;99034.44;3132483;28;19925;-71
2022/06/22 03:29:58;;;;;;;;;;;;;;;24.01;54.82;99039.91;3132506;28;20352;-71
2022/06/22 03:31:34;;;;;;;;;;;;;;;24.05;54.82;99043.88;3132806;28;19933;-71
2022/06/22 03:33:07;;;;;;;;;;;;;;;24.10;54.81;99038.84;3133679;28;19970;-71
2022/06/22 03:34:42;;;;;;;;;;;;;;;24.14;54.73;99040.19;3132524;28;19928;-71
2022/06/22 03:36:17;;;;;;;;;;;;;;;24.16;54.24;99038.16;3132863;28;20018;-71
2022/06/22 03:37:50;;;;;;;;;;;;;;;24.21;54.29;99035.78;3132451;28;19964;-70
2022/06/22 03:39:25;;;;;;;;;;;;;;;24.24;54.48;99037.28;3132952;28;19925;-70
2022/06/22 03:40:58;;;;;;;;;;;;;;;24.27;54.12;99045.72;3133140;28;19999;-70
2022/06/22 03:42:34;;;;;;;;;;;;;;;24.30;54.14;99039.25;3132746;28;19925;-70
2022/06/22 03:44:08;;;;;;;;;;;;;;;24.32;53.89;99044.41;3133057;28;19932;-70
2022/06/22 03:45:43;;;;;;;;;;;;;;;24.34;53.96;99042.38;3132496;28;19924;-72
2022/06/22 03:47:18;;;;;;;;;;;;;;;24.37;53.67;99039.34;3132794;28;19920;-72
2022/06/22 03:48:52;;;;;;;;;;;;;;;24.40;53.61;99039.00;3132935;28;19925;-71
2022/06/22 03:50:31;;;;;;;;;;;;;;;24.41;53.57;99046.81;3132798;28;19964;-73
2022/06/22 03:52:07;;;;;;;;;;;;;;;24.42;53.96;99047.66;3132307;28;20011;-72
2022/06/22 03:53:41;;;;;;;;;;;;;;;24.45;53.93;99044.66;3131115;28;19921;-71
2022/06/22 03:55:16;;;;;;;;;;;;;;;24.48;53.81;99046.97;3120928;28;19963;-71
2022/06/22 03:56:51;;;;;;;;;;;;;;;24.47;53.71;99043.47;3132929;28;19925;-72
2022/06/22 03:58:24;;;;;;;;;;;;;;;24.48;53.98;99044.31;3132389;28;20409;-71
2022/06/22 03:59:55;;;;;;;;;;;;;;;24.48;54.19;99049.63;3133054;28;20023;-71
2022/06/22 04:01:27;;;;;;;;;;;;;;;24.48;54.12;99055.78;3134916;28;20425;-72
2022/06/22 04:03:00;;;;;;;;;;;;;;;24.51;53.90;99054.59;3135237;28;20394;-72
2022/06/22 04:04:32;;;;;;;;;;;;;;;24.53;53.79;99055.25;3134995;28;20412;-72
2022/06/22 04:06:06;;;;;;;;;;;;;;;24.55;53.75;99052.41;3134449;28;19943;-72
2022/06/22 04:07:40;;;;;;;;;;;;;;;24.57;53.74;99050.41;3134810;28;19947;-70
2022/06/22 04:09:14;;;;;;;;;;;;;;;24.57;53.86;99037.91;3135265;28;20944;-72
2022/06/22 04:10:49;;;;;;;;;;;;;;;24.60;53.92;99042.06;3134654;28;20386;-72
2022/06/22 04:12:24;;;;;;;;;;;;;;;24.62;53.71;99035.56;3134444;28;20082;-71
2022/06/22 04:14:00;;;;;;;;;;;;;;;24.66;53.82;99044.81;3134970;28;19974;-71
2022/06/22 04:15:35;;;;;;;;;;;;;;;24.70;53.46;99040.00;3134768;28;19943;-71
2022/06/22 04:17:11;;;;;;;;;;;;;;;24.71;53.43;99044.31;3134830;28;19928;-73
2022/06/22 04:18:44;;;;;;;;;;;;;;;24.74;53.30;99035.97;3134447;28;19928;-73
2022/06/22 04:20:18;;;;;;;;;;;;;;;24.76;53.42;99025.97;3134764;28;19924;-73
2022/06/22 04:21:54;;;;;;;;;;;;;;;24.81;53.41;99031.56;3134912;28;19943;-71
2022/06/22 04:23:32;;;;;;;;;;;;;;;24.84;53.15;99025.88;3134679;28;19920;-72
2022/06/22 04:25:07;;;;;;;;;;;;;;;24.88;52.93;99026.38;3135065;28;19924;-71
2022/06/22 04:26:40;;;;;;;;;;;;;;;24.92;53.28;99027.66;3134394;28;20368;-72
2022/06/22 04:28:14;;;;;;;;;;;;;;;24.96;52.83;99026.28;3134783;28;20017;-73
2022/06/22 04:29:47;;;;;;;;;;;;;;;25.01;53.13;99028.41;3134169;28;19956;-74
2022/06/22 04:31:21;;;;;;;;;;;;;;;25.06;52.62;99050.00;3134685;28;20349;-71
2022/06/22 04:32:56;;;;;;;;;;;;;;;25.09;52.62;99044.31;3141312;28;19932;-73
2022/06/22 04:34:32;;;;;;;;;;;;;;;25.12;52.55;99044.78;3134760;28;19931;-70
2022/06/22 04:36:06;;;;;;;;;;;;;;;25.16;52.75;99054.09;3134594;28;19920;-72
2022/06/22 04:37:42;;;;;;;;;;;;;;;25.21;52.54;99050.06;3134677;28;20412;-68
2022/06/22 04:39:17;;;;;;;;;;;;;;;25.24;52.34;99047.03;3134197;28;19934;-70
2022/06/22 04:40:53;;;;;;;;;;;;;;;25.26;52.40;99045.00;3135155;28;20011;-69
2022/06/22 04:42:25;;;;;;;;;;;;;;;25.28;52.69;99049.13;3130761;28;20355;-69
2022/06/22 04:43:57;;;;;;;;;;;;;;;25.32;52.47;99041.59;3134801;28;19928;-71
2022/06/22 04:45:31;;;;;;;;;;;;;;;25.35;52.66;99039.44;3134851;28;20030;-71
2022/06/22 04:47:09;;;;;;;;;;;;;;;25.38;52.56;99039.06;3134311;28;21288;-69
2022/06/22 04:48:46;;;;;;;;;;;;;;;25.42;52.55;99040.34;3134332;28;20125;-69
2022/06/22 04:50:18;;;;;;;;;;;;;;;25.46;52.29;99050.63;3134381;28;20381;-70
2022/06/22 04:51:51;;;;;;;;;;;;;;;25.48;52.20;99051.28;3133960;28;20011;-71
2022/06/22 04:53:27;;;;;;;;;;;;;;;25.50;52.57;99052.75;3135000;28;19963;-68
2022/06/22 04:55:01;;;;;;;;;;;;;;;25.53;52.14;99054.22;3121971;28;19925;-70
2022/06/22 04:56:34;;;;;;;;;;;;;;;25.55;52.33;99054.84;3132919;28;20282;-69
2022/06/22 04:58:12;;;;;;;;;;;;;;;25.58;52.01;99065.97;3133952;28;20424;-67
2022/06/22 04:59:44;;;;;;;;;;;;;;;25.60;52.11;99069.28;3134725;28;19921;-68
2022/06/22 05:01:18;;;;;;;;;;;;;;;25.64;52.38;99067.06;3134260;28;19943;-69
2022/06/22 05:02:54;;;;;;;;;;;;;;;25.67;52.23;99050.72;3132061;28;19978;-64
2022/06/22 05:04:29;;;;;;;;;;;;;;;25.72;52.29;99060.84;3133957;28;20321;-65
2022/06/22 05:06:03;;;;;;;;;;;;;;;25.77;51.96;99061.13;3134434;28;19974;-64
2022/06/22 05:07:42;;;;;;;;;;;;;;;25.81;52.20;99055.22;3133725;28;19924;-68
2022/06/22 05:09:22;;;;;;;;;;;;;;;25.86;51.84;99060.84;3134022;28;19943;-67
2022/06/22 05:10:57;;;;;;;;;;;;;;;25.89;52.26;99067.66;3133719;28;19960;-67
2022/06/22 05:12:31;;;;;;;;;;;;;;;25.91;52.26;99065.66;3134724;28;19950;-65
2022/06/22 05:14:05;;;;;;;;;;;;;;;25.95;52.06;99066.91;3134503;28;19936;-67
2022/06/22 05:15:38;;;;;;;;;;;;;;;25.99;51.96;99067.38;3133713;28;19924;-65
2022/06/22 05:17:13;;;;;;;;;;;;;;;26.02;52.16;99067.81;3134149;28;19920;-66
2022/06/22 05:18:46;;;;;;;;;;;;;;;26.07;52.29;99076.09;3134638;28;19932;-68
2022/06/22 05:20:21;;;;;;;;;;;;;;;26.12;52.13;99080.88;3134003;28;19925;-66
2022/06/22 05:21:53;;;;;;;;;;;;;;;26.16;51.94;99084.81;3134047;28;19928;-67
2022/06/22 05:23:26;;;;;;;;;;;;;;;26.21;51.59;99086.94;3133840;28;19920;-68
2022/06/22 05:25:01;;;;;;;;;;;;;;;26.26;51.35;99090.69;3134408;28;19940;-66
2022/06/22 05:26:34;;;;;;;;;;;;;;;26.32;51.38;99092.63;3124856;28;19924;-64
2022/06/22 05:28:08;;;;;;;;;;;;;;;26.39;50.96;99098.03;3133967;28;19920;-65
2022/06/22 05:29:44;;;;;;;;;;;;;;;26.47;50.98;99102.41;3133760;28;19932;-68
2022/06/22 05:31:19;;;;;;;;;;;;;;;26.54;50.63;99092.69;3121506;28;19928;-68
2022/06/22 05:32:52;;;;;;;;;;;;;;;26.61;50.53;99098.06;3133191;28;19932;-68
2022/06/22 05:34:25;;;;;;;;;;;;;;;26.69;50.10;99098.78;3133879;28;20378;-69
2022/06/22 05:36:01;;;;;;;;;;;;;;;26.76;49.88;99094.31;3134078;28;19928;-68
2022/06/22 05:37:34;;;;;;;;;;;;;;;26.84;49.58;99088.03;3133484;28;20085;-74
2022/06/22 05:39:07;;;;;;;;;;;;;;;26.94;49.34;99093.88;3132648;28;20374;-68
2022/06/22 05:40:41;;;;;;;;;;;;;;;27.03;49.36;99096.41;3133080;28;20312;-69
2022/06/22 05:42:14;;;;;;;;;;;;;;;27.11;49.30;99097.09;3134411;28;19925;-70
2022/06/22 05:43:46;;;;;;;;;;;;;;;27.19;49.07;99097.00;3133814;28;20007;-69
2022/06/22 05:45:21;;;;;;;;;;;;;;;27.23;48.83;99103.59;3134042;28;20672;-69
2022/06/22 05:46:54;;;;;;;;;;;;;;;27.26;48.51;99097.03;3134011;28;19967;-69
2022/06/22 05:48:27;;;;;;;;;;;;;;;27.30;48.29;99098.31;3133924;28;19986;-72
2022/06/22 05:50:02;;;;;;;;;;;;;;;27.33;48.25;99099.75;3133926;28;20381;-71
2022/06/22 05:51:37;;;;;;;;;;;;;;;27.36;48.48;99100.22;3134058;28;20002;-72
2022/06/22 05:53:12;;;;;;;;;;;;;;;27.39;47.96;99097.16;3133987;28;20381;-74
2022/06/22 05:54:46;;;;;;;;;;;;;;;27.42;48.34;99096.75;3132617;28;19967;-71
2022/06/22 05:56:22;;;;;;;;;;;;;;;27.48;48.14;99099.66;3126852;28;19963;-71
2022/06/22 05:57:57;;;;;;;;;;;;;;;27.53;47.85;99102.56;3133637;28;19981;-72
2022/06/22 05:59:32;;;;;;;;;;;;;;;27.55;47.63;99098.69;3133317;28;19920;-64
2022/06/22 06:01:04;;;;;;;;;;;;;;;27.59;47.37;99093.78;3133849;28;20390;-64
2022/06/22 06:02:39;;;;;;;;;;;;;;;27.61;47.21;99097.09;3133762;28;19921;-64
2022/06/22 06:04:15;;;;;;;;;;;;;;;27.66;47.34;99098.16;3133495;28;19921;-63
2022/06/22 06:05:49;;;;;;;;;;;;;;;27.71;47.48;99092.19;3133277;28;20383;-64
2022/06/22 06:07:28;;;;;;;;;;;;;;;27.75;46.88;99100.66;3133746;28;19966;-65
2022/06/22 06:09:01;;;;;;;;;;;;;;;27.80;46.79;99096.38;3133973;28;20023;-67
2022/06/22 06:10:34;;;;;;;;;;;;;;;27.86;46.62;99103.66;3133574;28;19928;-66
2022/06/22 06:12:11;;;;;;;;;;;;;;;27.92;46.68;99096.66;3133549;28;20255;-67
2022/06/22 06:13:45;;;;;;;;;;;;;;;27.95;46.37;99103.47;3133161;28;19954;-64
2022/06/22 06:15:17;;;;;;;;;;;;;;;27.96;45.75;99097.09;3133439;28;19920;-63
2022/06/22 06:16:50;;;;;;;;;;;;;;;27.98;46.19;99095.88;3133729;28;19936;-64
2022/06/22 06:18:24;;;;;;;;;;;;;;;28.00;46.25;99093.81;3133525;28;20093;-63
2022/06/22 06:19:57;;;;;;;;;;;;;;;27.94;45.80;99104.50;3133372;28;19921;-64
2022/06/22 06:21:32;;;;;;;;;;;;;;;27.94;45.82;99101.81;3133153;28;19927;-63
2022/06/22 06:23:07;;;;;;;;;;;;;;;27.88;45.94;99093.56;3132453;28;19932;-65
2022/06/22 06:27:34;;;;;;;;;;;;;;;27.78;46.41;99098.44;3133384;28;20007;-65
2022/06/22 06:28:30;;;;;;;;;;;;;;;27.58;46.76;99092.13;3120966;28;19964;-64
2022/06/22 06:30:06;;;;;;;;;;;;;;;27.50;47.44;99086.94;3132487;28;19965;-64
2022/06/22 06:31:46;;;;;;;;;;;;;;;27.46;46.97;99083.81;3133290;28;19924;-64
2022/06/22 06:33:20;;;;;;;;;;;;;;;27.44;47.26;99086.69;3134128;28;19924;-64
2022/06/22 06:34:54;;;;;;;;;;;;;;;27.50;47.00;99086.94;3133349;28;19921;-64
2022/06/22 06:36:27;;;;;;;;;;;;;;;27.58;47.42;99086.78;3132892;28;19951;-64
2022/06/22 06:38:03;;;;;;;;;;;;;;;27.65;47.65;99088.44;3133266;28;19997;-67
2022/06/22 06:39:37;;;;;;;;;;;;;;;27.71;47.41;99088.69;3129072;28;19920;-63
2022/06/22 06:41:10;;;;;;;;;;;;;;;27.70;47.39;99087.88;3133361;28;19920;-63
2022/06/22 06:42:45;;;;;;;;;;;;;;;27.67;47.40;99086.41;3133221;28;19921;-64
2022/06/22 06:44:20;;;;;;;;;;;;;;;27.68;47.63;99089.91;3133156;28;19929;-64
2022/06/22 06:45:53;;;;;;;;;;;;;;;27.66;47.78;99084.78;3133114;28;19928;-62
2022/06/22 06:47:26;;;;;;;;;;;;;;;27.68;47.55;99077.34;3133164;28;19924;-61
2022/06/22 06:49:14;;;;;;;;;;;;;;;27.72;47.64;99069.78;3133183;28;19934;-61
2022/06/22 06:50:48;;;;;;;;;;;;;;;27.80;47.52;99074.97;3132195;28;19986;-61
2022/06/22 06:52:26;;;;;;;;;;;;;;;27.89;47.50;99068.47;3133144;28;19927;-60
2022/06/22 06:54:02;;;;;;;;;;;;;;;27.99;46.96;99073.44;3131842;28;19928;-61
2022/06/22 06:55:35;;;;;;;;;;;;;;;28.07;46.99;99067.91;3133124;28;20015;-61
2022/06/22 06:57:09;;;;;;;;;;;;;;;28.15;46.93;99068.75;3133148;28;20298;-61
2022/06/22 06:58:43;;;;;;;;;;;;;;;28.20;47.23;99060.97;3132863;28;20034;-60
2022/06/22 07:00:16;;;;;;;;;;;;;;;28.26;46.86;99068.19;3132864;28;19925;-62
2022/06/22 07:01:49;;;;;;;;;;;;;;;28.33;46.74;99077.03;3132346;28;20330;-64
2022/06/22 07:03:23;;;;;;;;;;;;;;;28.39;46.44;99075.41;3132579;28;19925;-65
2022/06/22 07:04:56;;;;;;;;;;;;;;;28.46;46.28;99069.09;3132822;28;20496;-66
2022/06/22 07:06:28;;;;;;;;;;;;;;;28.50;46.65;99062.28;3132460;28;19921;-67
2022/06/22 07:08:02;;;;;;;;;;;;;;;28.55;46.35;99065.19;3133042;28;19920;-66
2022/06/22 07:09:36;;;;;;;;;;;;;;;28.64;46.66;99076.53;3132784;28;20372;-67
2022/06/22 07:11:12;;;;;;;;;;;;;;;28.72;46.57;99076.34;3133164;28;20122;-67
2022/06/22 07:12:46;;;;;;;;;;;;;;;28.78;45.88;99077.38;3132441;28;19925;-71
2022/06/22 07:14:20;;;;;;;;;;;;;;;28.80;46.07;99069.97;3133089;28;20338;-67
2022/06/22 07:15:54;;;;;;;;;;;;;;;28.87;45.80;99078.00;3133113;28;19921;-67
2022/06/22 07:17:31;;;;;;;;;;;;;;;28.93;45.66;99080.69;3133143;28;19921;-64
2022/06/22 07:19:05;;;;;;;;;;;;;;;29.01;45.60;99074.28;3133300;28;20011;-66
2022/06/22 07:20:40;;;;;;;;;;;;;;;29.09;45.45;99078.66;3132872;28;20359;-65
2022/06/22 07:22:16;;;;;;;;;;;;;;;29.15;45.41;99092.06;3132275;28;20015;-64
2022/06/22 07:23:50;;;;;;;;;;;;;;;29.16;45.66;99091.03;3132432;28;20027;-65
2022/06/22 07:25:26;;;;;;;;;;;;;;;29.20;45.61;99081.53;3131724;28;19929;-66
2022/06/22 07:27:02;;;;;;;;;;;;;;;29.25;45.24;99086.28;3129904;28;19924;-66
2022/06/22 07:28:36;;;;;;;;;;;;;;;29.32;45.44;99087.09;3132477;28;19920;-66
2022/06/22 07:30:12;;;;;;;;;;;;;;;29.39;45.25;99087.09;3131213;28;19940;-66
2022/06/22 07:31:48;;;;;;;;;;;;;;;29.45;45.28;99092.44;3132423;28;19920;-66
2022/06/22 07:33:25;;;;;;;;;;;;;;;29.45;45.43;99075.53;3133695;28;19921;-66
2022/06/22 07:35:01;;;;;;;;;;;;;;;29.62;45.32;99094.72;3134745;28;20015;-66
2022/06/22 07:36:36;;;;;;;;;;;;;;;29.70;45.24;99103.38;3135126;28;20338;-67
2022/06/22 07:38:16;;;;;;;;;;;;;;;29.79;44.89;99095.09;3135027;28;19921;-69
2022/06/22 07:39:54;;;;;;;;;;;;;;;29.89;44.79;99095.47;3134940;28;19928;-64
2022/06/22 07:41:26;;;;;;;;;;;;;;;29.95;44.56;99099.16;3134783;28;19924;-65
2022/06/22 07:42:58;;;;;;;;;;;;;;;30.00;44.55;99096.69;3134968;28;19924;-65
2022/06/22 07:44:31;;;;;;;;;;;;;;;30.05;44.73;99096.84;3134882;28;19921;-69
2022/06/22 07:46:04;;;;;;;;;;;;;;;30.08;44.41;99099.97;3134264;28;19970;-68
2022/06/22 07:47:37;;;;;;;;;;;;;;;30.14;44.40;99099.09;3132354;28;19947;-67
2022/06/22 07:49:12;;;;;;;;;;;;;;;30.23;44.75;99093.50;3135336;28;19935;-71
2022/06/22 07:50:48;;;;;;;;;;;;;;;30.26;44.09;99088.53;3135128;28;19928;-65
2022/06/22 07:52:23;;;;;;;;;;;;;;;30.29;43.92;99087.25;3134995;28;20573;-65
2022/06/22 07:53:57;;;;;;;;;;;;;;;30.32;43.99;99097.59;3131034;28;19921;-66
2022/06/22 07:55:35;;;;;;;;;;;;;;;30.35;43.85;99089.94;3132868;28;19922;-63
2022/06/22 07:57:12;;;;;;;;;;;;;;;30.41;43.61;99087.41;3135104;28;19920;-63
2022/06/22 07:58:46;;;;;;;;;;;;;;;30.50;43.89;99096.88;3134975;28;19967;-62
2022/06/22 08:00:19;;;;;;;;;;;;;;;30.56;43.59;99086.09;3135068;28;20373;-61
2022/06/22 08:01:54;;;;;;;;;;;;;;;30.60;43.55;99092.66;3134734;28;20383;-61
2022/06/22 08:03:28;;;;;;;;;;;;;;;30.65;43.40;99096.59;3134889;28;19925;-63
2022/06/22 08:05:04;;;;;;;;;;;;;;;30.70;42.77;99081.44;3135096;28;20305;-61
2022/06/22 08:06:38;;;;;;;;;;;;;;;30.77;43.15;99079.53;3134811;28;19925;-63
2022/06/22 08:08:17;;;;;;;;;;;;;;;30.88;42.69;99090.66;3134785;28;19920;-64
2022/06/22 08:09:54;;;;;;;;;;;;;;;30.92;42.20;99076.56;3134771;28;19932;-63
2022/06/22 08:11:28;;;;;;;;;;;;;;;31.05;41.98;99076.44;3134818;28;19925;-64
2022/06/22 08:13:02;;;;;;;;;;;;;;;31.15;41.42;99075.97;3134842;28;19925;-65
2022/06/22 08:14:38;;;;;;;;;;;;;;;31.26;41.23;99083.28;3134787;28;19932;-63
2022/06/22 08:16:12;;;;;;;;;;;;;;;31.34;40.51;99092.97;3134536;28;19928;-63
2022/06/22 08:17:45;;;;;;;;;;;;;;;31.36;40.14;99088.22;3134977;28;19928;-63
2022/06/22 08:19:16;;;;;;;;;;;;;;;31.40;40.22;99085.91;3134455;28;19982;-63
2022/06/22 08:20:51;;;;;;;;;;;;;;;31.44;39.88;99087.94;3134781;28;19924;-63
2022/06/22 08:22:23;;;;;;;;;;;;;;;31.48;39.57;99080.25;3135010;28;20439;-64